sensor_id;sensor_type;location;lat;lon;timestamp;P1;durP1;ratioP1;P2;durP2;ratioP2
27558;SDS011;15002;52.028;5.670;2023-05-16T00:02:05;13.02;;;2.72;;
27558;SDS011;15002;52.028;5.670;2023-05-16T00:04:31;18.55;;;2.50;;
27558;SDS011;15002;52.028;5.670;2023-05-16T00:06:57;8.82;;;2.28;;
27558;SDS011;15002;52.028;5.670;2023-05-16T00:09:23;13.25;;;2.92;;
27558;SDS011;15002;52.028;5.670;2023-05-16T00:11:48;12.88;;;2.17;;
27558;SDS011;15002;52.028;5.670;2023-05-16T00:14:15;14.02;;;2.88;;
27558;SDS011;15002;52.028;5.670;2023-05-16T00:16:40;14.25;;;2.90;;
27558;SDS011;15002;52.028;5.670;2023-05-16T00:19:06;17.88;;;2.40;;
27558;SDS011;15002;52.028;5.670;2023-05-16T00:21:32;10.75;;;2.38;;
27558;SDS011;15002;52.028;5.670;2023-05-16T00:23:58;13.30;;;2.40;;
27558;SDS011;15002;52.028;5.670;2023-05-16T00:26:24;12.65;;;2.20;;
27558;SDS011;15002;52.028;5.670;2023-05-16T00:28:50;9.77;;;2.42;;
27558;SDS011;15002;52.028;5.670;2023-05-16T00:31:15;14.45;;;3.30;;
27558;SDS011;15002;52.028;5.670;2023-05-16T00:33:41;13.30;;;2.42;;
27558;SDS011;15002;52.028;5.670;2023-05-16T00:36:07;11.68;;;2.38;;
27558;SDS011;15002;52.028;5.670;2023-05-16T00:38:32;9.93;;;2.20;;
27558;SDS011;15002;52.028;5.670;2023-05-16T00:40:58;11.63;;;2.85;;
27558;SDS011;15002;52.028;5.670;2023-05-16T00:43:24;14.52;;;2.67;;
27558;SDS011;15002;52.028;5.670;2023-05-16T00:45:49;9.60;;;2.70;;
27558;SDS011;15002;52.028;5.670;2023-05-16T00:48:15;15.65;;;2.50;;
27558;SDS011;15002;52.028;5.670;2023-05-16T00:50:41;9.15;;;2.67;;
27558;SDS011;15002;52.028;5.670;2023-05-16T00:53:07;9.30;;;2.08;;
27558;SDS011;15002;52.028;5.670;2023-05-16T00:55:32;9.65;;;2.20;;
27558;SDS011;15002;52.028;5.670;2023-05-16T00:57:58;8.60;;;2.30;;
27558;SDS011;15002;52.028;5.670;2023-05-16T01:00:24;10.57;;;2.05;;
27558;SDS011;15002;52.028;5.670;2023-05-16T01:02:50;14.23;;;2.53;;
27558;SDS011;15002;52.028;5.670;2023-05-16T01:05:17;15.48;;;2.45;;
27558;SDS011;15002;52.028;5.670;2023-05-16T01:07:44;10.55;;;2.22;;
27558;SDS011;15002;52.028;5.670;2023-05-16T01:10:10;12.80;;;3.20;;
27558;SDS011;15002;52.028;5.670;2023-05-16T01:17:52;9.88;;;2.63;;
27558;SDS011;15002;52.028;5.670;2023-05-16T01:20:36;8.55;;;2.50;;
27558;SDS011;15002;52.028;5.670;2023-05-16T01:26:13;19.80;;;3.08;;
27558;SDS011;15002;52.028;5.670;2023-05-16T01:28:36;7.93;;;2.53;;
27558;SDS011;15002;52.028;5.670;2023-05-16T01:31:04;8.20;;;2.92;;
27558;SDS011;15002;52.028;5.670;2023-05-16T01:33:30;13.00;;;2.72;;
27558;SDS011;15002;52.028;5.670;2023-05-16T01:36:01;7.38;;;2.60;;
27558;SDS011;15002;52.028;5.670;2023-05-16T01:38:38;10.32;;;2.58;;
27558;SDS011;15002;52.028;5.670;2023-05-16T01:41:22;14.60;;;3.17;;
27558;SDS011;15002;52.028;5.670;2023-05-16T01:43:53;10.70;;;2.65;;
27558;SDS011;15002;52.028;5.670;2023-05-16T01:46:28;7.95;;;3.20;;
27558;SDS011;15002;52.028;5.670;2023-05-16T01:51:57;12.23;;;2.15;;
27558;SDS011;15002;52.028;5.670;2023-05-16T01:54:26;9.57;;;2.25;;
27558;SDS011;15002;52.028;5.670;2023-05-16T01:56:55;11.77;;;2.85;;
27558;SDS011;15002;52.028;5.670;2023-05-16T01:59:22;9.00;;;2.17;;
27558;SDS011;15002;52.028;5.670;2023-05-16T02:01:50;7.53;;;1.92;;
27558;SDS011;15002;52.028;5.670;2023-05-16T02:04:17;12.95;;;2.58;;
27558;SDS011;15002;52.028;5.670;2023-05-16T02:06:43;9.60;;;2.10;;
27558;SDS011;15002;52.028;5.670;2023-05-16T02:09:09;10.27;;;2.65;;
27558;SDS011;15002;52.028;5.670;2023-05-16T02:11:35;9.43;;;2.10;;
27558;SDS011;15002;52.028;5.670;2023-05-16T02:14:00;12.68;;;2.13;;
27558;SDS011;15002;52.028;5.670;2023-05-16T02:16:26;6.60;;;1.60;;
27558;SDS011;15002;52.028;5.670;2023-05-16T02:18:53;11.00;;;2.28;;
27558;SDS011;15002;52.028;5.670;2023-05-16T02:21:19;10.27;;;2.47;;
27558;SDS011;15002;52.028;5.670;2023-05-16T02:23:45;7.32;;;2.10;;
27558;SDS011;15002;52.028;5.670;2023-05-16T02:26:10;15.23;;;1.80;;
27558;SDS011;15002;52.028;5.670;2023-05-16T02:28:36;11.70;;;2.15;;
27558;SDS011;15002;52.028;5.670;2023-05-16T02:31:01;11.60;;;2.55;;
27558;SDS011;15002;52.028;5.670;2023-05-16T02:33:29;11.95;;;2.33;;
27558;SDS011;15002;52.028;5.670;2023-05-16T02:35:55;9.48;;;2.42;;
27558;SDS011;15002;52.028;5.670;2023-05-16T02:38:20;10.98;;;2.47;;
27558;SDS011;15002;52.028;5.670;2023-05-16T02:40:46;10.35;;;2.25;;
27558;SDS011;15002;52.028;5.670;2023-05-16T02:43:12;12.10;;;2.30;;
27558;SDS011;15002;52.028;5.670;2023-05-16T02:45:38;10.38;;;1.90;;
27558;SDS011;15002;52.028;5.670;2023-05-16T02:48:04;9.77;;;1.75;;
27558;SDS011;15002;52.028;5.670;2023-05-16T02:50:31;13.70;;;1.98;;
27558;SDS011;15002;52.028;5.670;2023-05-16T02:52:58;8.68;;;1.88;;
27558;SDS011;15002;52.028;5.670;2023-05-16T02:55:26;11.70;;;2.00;;
27558;SDS011;15002;52.028;5.670;2023-05-16T02:57:52;11.43;;;1.95;;
27558;SDS011;15002;52.028;5.670;2023-05-16T03:00:18;9.68;;;2.40;;
27558;SDS011;15002;52.028;5.670;2023-05-16T03:02:44;8.00;;;1.65;;
27558;SDS011;15002;52.028;5.670;2023-05-16T03:05:10;10.45;;;2.20;;
27558;SDS011;15002;52.028;5.670;2023-05-16T03:07:36;4.78;;;1.98;;
27558;SDS011;15002;52.028;5.670;2023-05-16T03:10:02;8.15;;;1.70;;
27558;SDS011;15002;52.028;5.670;2023-05-16T03:12:28;12.98;;;2.40;;
27558;SDS011;15002;52.028;5.670;2023-05-16T03:14:54;10.80;;;2.42;;
27558;SDS011;15002;52.028;5.670;2023-05-16T03:17:19;9.80;;;1.65;;
27558;SDS011;15002;52.028;5.670;2023-05-16T03:19:45;9.48;;;2.00;;
27558;SDS011;15002;52.028;5.670;2023-05-16T03:22:11;10.85;;;2.15;;
27558;SDS011;15002;52.028;5.670;2023-05-16T03:24:37;8.35;;;1.95;;
27558;SDS011;15002;52.028;5.670;2023-05-16T03:27:03;10.05;;;2.03;;
27558;SDS011;15002;52.028;5.670;2023-05-16T03:29:29;10.50;;;2.00;;
27558;SDS011;15002;52.028;5.670;2023-05-16T03:31:55;13.07;;;1.90;;
27558;SDS011;15002;52.028;5.670;2023-05-16T03:34:20;13.43;;;1.83;;
27558;SDS011;15002;52.028;5.670;2023-05-16T03:36:49;9.15;;;2.50;;
27558;SDS011;15002;52.028;5.670;2023-05-16T03:39:15;11.68;;;2.20;;
27558;SDS011;15002;52.028;5.670;2023-05-16T03:41:41;12.90;;;1.90;;
27558;SDS011;15002;52.028;5.670;2023-05-16T03:44:07;8.07;;;1.98;;
27558;SDS011;15002;52.028;5.670;2023-05-16T03:46:34;9.68;;;2.13;;
27558;SDS011;15002;52.028;5.670;2023-05-16T03:49:00;12.82;;;2.33;;
27558;SDS011;15002;52.028;5.670;2023-05-16T03:51:26;7.70;;;1.60;;
27558;SDS011;15002;52.028;5.670;2023-05-16T03:53:52;7.72;;;2.20;;
27558;SDS011;15002;52.028;5.670;2023-05-16T03:56:18;9.15;;;1.80;;
27558;SDS011;15002;52.028;5.670;2023-05-16T03:58:44;8.60;;;1.92;;
27558;SDS011;15002;52.028;5.670;2023-05-16T04:01:09;6.90;;;1.70;;
27558;SDS011;15002;52.028;5.670;2023-05-16T04:03:35;12.18;;;2.05;;
27558;SDS011;15002;52.028;5.670;2023-05-16T04:06:02;12.75;;;2.30;;
27558;SDS011;15002;52.028;5.670;2023-05-16T04:08:28;13.65;;;2.28;;
27558;SDS011;15002;52.028;5.670;2023-05-16T04:10:54;12.30;;;2.50;;
27558;SDS011;15002;52.028;5.670;2023-05-16T04:13:20;12.43;;;1.88;;
27558;SDS011;15002;52.028;5.670;2023-05-16T04:15:45;16.40;;;2.35;;
27558;SDS011;15002;52.028;5.670;2023-05-16T04:18:11;11.65;;;2.50;;
27558;SDS011;15002;52.028;5.670;2023-05-16T04:20:37;14.32;;;2.33;;
27558;SDS011;15002;52.028;5.670;2023-05-16T04:23:02;10.43;;;2.35;;
27558;SDS011;15002;52.028;5.670;2023-05-16T04:25:28;10.40;;;1.73;;
27558;SDS011;15002;52.028;5.670;2023-05-16T04:27:55;11.40;;;2.00;;
27558;SDS011;15002;52.028;5.670;2023-05-16T04:30:21;8.90;;;1.90;;
27558;SDS011;15002;52.028;5.670;2023-05-16T04:32:47;10.95;;;2.30;;
27558;SDS011;15002;52.028;5.670;2023-05-16T04:35:12;13.45;;;2.30;;
27558;SDS011;15002;52.028;5.670;2023-05-16T04:37:38;6.95;;;1.88;;
27558;SDS011;15002;52.028;5.670;2023-05-16T04:40:04;8.88;;;1.83;;
27558;SDS011;15002;52.028;5.670;2023-05-16T04:42:31;10.25;;;2.35;;
27558;SDS011;15002;52.028;5.670;2023-05-16T04:44:57;12.75;;;2.13;;
27558;SDS011;15002;52.028;5.670;2023-05-16T04:47:23;12.15;;;1.88;;
27558;SDS011;15002;52.028;5.670;2023-05-16T04:49:48;7.35;;;2.15;;
27558;SDS011;15002;52.028;5.670;2023-05-16T04:52:14;7.13;;;2.17;;
27558;SDS011;15002;52.028;5.670;2023-05-16T04:54:39;9.20;;;2.35;;
27558;SDS011;15002;52.028;5.670;2023-05-16T04:57:05;14.77;;;2.42;;
27558;SDS011;15002;52.028;5.670;2023-05-16T04:59:31;8.02;;;2.05;;
27558;SDS011;15002;52.028;5.670;2023-05-16T05:01:56;9.88;;;1.92;;
27558;SDS011;15002;52.028;5.670;2023-05-16T05:04:22;11.63;;;2.22;;
27558;SDS011;15002;52.028;5.670;2023-05-16T05:06:48;12.65;;;2.10;;
27558;SDS011;15002;52.028;5.670;2023-05-16T05:09:14;10.73;;;2.35;;
27558;SDS011;15002;52.028;5.670;2023-05-16T05:11:40;14.05;;;2.45;;
27558;SDS011;15002;52.028;5.670;2023-05-16T05:14:05;8.82;;;2.00;;
27558;SDS011;15002;52.028;5.670;2023-05-16T05:16:31;10.00;;;1.95;;
27558;SDS011;15002;52.028;5.670;2023-05-16T05:18:57;10.65;;;1.80;;
27558;SDS011;15002;52.028;5.670;2023-05-16T05:21:22;11.55;;;1.90;;
27558;SDS011;15002;52.028;5.670;2023-05-16T05:23:49;6.13;;;1.85;;
27558;SDS011;15002;52.028;5.670;2023-05-16T05:26:15;12.15;;;2.08;;
27558;SDS011;15002;52.028;5.670;2023-05-16T05:28:41;8.18;;;2.00;;
27558;SDS011;15002;52.028;5.670;2023-05-16T05:31:07;10.88;;;2.05;;
27558;SDS011;15002;52.028;5.670;2023-05-16T05:33:32;7.88;;;2.08;;
27558;SDS011;15002;52.028;5.670;2023-05-16T05:35:58;7.65;;;1.65;;
27558;SDS011;15002;52.028;5.670;2023-05-16T05:38:24;11.60;;;1.98;;
27558;SDS011;15002;52.028;5.670;2023-05-16T05:40:50;10.80;;;1.83;;
27558;SDS011;15002;52.028;5.670;2023-05-16T05:43:15;11.38;;;1.85;;
27558;SDS011;15002;52.028;5.670;2023-05-16T05:45:41;7.70;;;1.90;;
27558;SDS011;15002;52.028;5.670;2023-05-16T05:48:08;8.35;;;1.90;;
27558;SDS011;15002;52.028;5.670;2023-05-16T05:50:34;8.13;;;1.92;;
27558;SDS011;15002;52.028;5.670;2023-05-16T05:53:00;8.80;;;1.75;;
27558;SDS011;15002;52.028;5.670;2023-05-16T05:55:26;10.88;;;2.25;;
27558;SDS011;15002;52.028;5.670;2023-05-16T05:57:52;8.25;;;1.77;;
27558;SDS011;15002;52.028;5.670;2023-05-16T06:00:17;6.20;;;1.52;;
27558;SDS011;15002;52.028;5.670;2023-05-16T06:02:43;10.23;;;2.15;;
27558;SDS011;15002;52.028;5.670;2023-05-16T06:05:09;6.93;;;1.67;;
27558;SDS011;15002;52.028;5.670;2023-05-16T06:07:35;9.07;;;1.70;;
27558;SDS011;15002;52.028;5.670;2023-05-16T06:10:00;15.68;;;2.20;;
27558;SDS011;15002;52.028;5.670;2023-05-16T06:12:28;9.82;;;1.60;;
27558;SDS011;15002;52.028;5.670;2023-05-16T06:14:54;9.48;;;1.85;;
27558;SDS011;15002;52.028;5.670;2023-05-16T06:17:20;12.15;;;1.80;;
27558;SDS011;15002;52.028;5.670;2023-05-16T06:19:46;10.70;;;1.48;;
27558;SDS011;15002;52.028;5.670;2023-05-16T06:22:11;13.68;;;1.48;;
27558;SDS011;15002;52.028;5.670;2023-05-16T06:24:37;9.50;;;1.40;;
27558;SDS011;15002;52.028;5.670;2023-05-16T06:27:03;13.20;;;1.70;;
27558;SDS011;15002;52.028;5.670;2023-05-16T06:29:29;12.27;;;1.65;;
27558;SDS011;15002;52.028;5.670;2023-05-16T06:31:55;4.05;;;1.30;;
27558;SDS011;15002;52.028;5.670;2023-05-16T06:34:21;9.75;;;1.20;;
27558;SDS011;15002;52.028;5.670;2023-05-16T06:36:52;7.28;;;1.35;;
27558;SDS011;15002;52.028;5.670;2023-05-16T06:39:18;7.70;;;1.17;;
27558;SDS011;15002;52.028;5.670;2023-05-16T06:41:43;4.85;;;1.00;;
27558;SDS011;15002;52.028;5.670;2023-05-16T06:44:09;3.80;;;1.42;;
27558;SDS011;15002;52.028;5.670;2023-05-16T06:46:35;5.15;;;0.93;;
27558;SDS011;15002;52.028;5.670;2023-05-16T06:49:02;6.05;;;0.90;;
27558;SDS011;15002;52.028;5.670;2023-05-16T06:51:28;8.10;;;1.05;;
27558;SDS011;15002;52.028;5.670;2023-05-16T06:53:55;4.38;;;1.05;;
27558;SDS011;15002;52.028;5.670;2023-05-16T06:56:21;6.38;;;0.95;;
27558;SDS011;15002;52.028;5.670;2023-05-16T06:58:47;3.45;;;0.93;;
27558;SDS011;15002;52.028;5.670;2023-05-16T07:01:13;6.70;;;0.98;;
27558;SDS011;15002;52.028;5.670;2023-05-16T07:03:39;5.40;;;1.02;;
27558;SDS011;15002;52.028;5.670;2023-05-16T07:06:05;4.97;;;0.90;;
27558;SDS011;15002;52.028;5.670;2023-05-16T07:08:31;3.78;;;0.77;;
27558;SDS011;15002;52.028;5.670;2023-05-16T07:10:57;2.70;;;0.80;;
27558;SDS011;15002;52.028;5.670;2023-05-16T07:13:22;5.03;;;1.35;;
27558;SDS011;15002;52.028;5.670;2023-05-16T07:15:48;7.00;;;0.82;;
27558;SDS011;15002;52.028;5.670;2023-05-16T07:18:14;4.57;;;1.10;;
27558;SDS011;15002;52.028;5.670;2023-05-16T07:20:39;3.88;;;1.15;;
27558;SDS011;15002;52.028;5.670;2023-05-16T07:23:05;6.68;;;0.82;;
27558;SDS011;15002;52.028;5.670;2023-05-16T07:25:31;9.45;;;1.55;;
27558;SDS011;15002;52.028;5.670;2023-05-16T07:27:57;5.47;;;1.67;;
27558;SDS011;15002;52.028;5.670;2023-05-16T07:30:22;4.47;;;0.98;;
27558;SDS011;15002;52.028;5.670;2023-05-16T07:32:48;6.32;;;1.30;;
27558;SDS011;15002;52.028;5.670;2023-05-16T07:35:13;3.10;;;1.00;;
27558;SDS011;15002;52.028;5.670;2023-05-16T07:37:39;6.63;;;1.15;;
27558;SDS011;15002;52.028;5.670;2023-05-16T07:40:07;8.88;;;1.30;;
27558;SDS011;15002;52.028;5.670;2023-05-16T07:42:34;6.15;;;1.42;;
27558;SDS011;15002;52.028;5.670;2023-05-16T07:45:00;6.25;;;0.70;;
27558;SDS011;15002;52.028;5.670;2023-05-16T07:47:26;5.30;;;1.35;;
27558;SDS011;15002;52.028;5.670;2023-05-16T07:49:51;5.82;;;1.00;;
27558;SDS011;15002;52.028;5.670;2023-05-16T07:52:17;3.95;;;0.93;;
27558;SDS011;15002;52.028;5.670;2023-05-16T07:54:43;5.85;;;0.95;;
27558;SDS011;15002;52.028;5.670;2023-05-16T07:57:12;3.53;;;0.80;;
27558;SDS011;15002;52.028;5.670;2023-05-16T07:59:39;5.80;;;1.27;;
27558;SDS011;15002;52.028;5.670;2023-05-16T08:02:05;7.20;;;1.20;;
27558;SDS011;15002;52.028;5.670;2023-05-16T08:04:30;4.72;;;0.88;;
27558;SDS011;15002;52.028;5.670;2023-05-16T08:06:56;7.80;;;1.00;;
27558;SDS011;15002;52.028;5.670;2023-05-16T08:09:22;3.92;;;0.80;;
27558;SDS011;15002;52.028;5.670;2023-05-16T08:11:47;2.45;;;0.80;;
27558;SDS011;15002;52.028;5.670;2023-05-16T08:14:13;5.00;;;1.00;;
27558;SDS011;15002;52.028;5.670;2023-05-16T08:16:39;4.30;;;0.85;;
27558;SDS011;15002;52.028;5.670;2023-05-16T08:19:05;3.67;;;0.40;;
27558;SDS011;15002;52.028;5.670;2023-05-16T08:21:31;3.90;;;0.82;;
27558;SDS011;15002;52.028;5.670;2023-05-16T08:23:57;2.58;;;0.52;;
27558;SDS011;15002;52.028;5.670;2023-05-16T08:26:22;2.50;;;0.40;;
27558;SDS011;15002;52.028;5.670;2023-05-16T08:28:48;2.83;;;0.60;;
27558;SDS011;15002;52.028;5.670;2023-05-16T08:31:14;2.63;;;0.47;;
27558;SDS011;15002;52.028;5.670;2023-05-16T08:33:40;4.15;;;0.60;;
27558;SDS011;15002;52.028;5.670;2023-05-16T08:36:06;1.77;;;0.50;;
27558;SDS011;15002;52.028;5.670;2023-05-16T08:38:33;1.63;;;0.43;;
27558;SDS011;15002;52.028;5.670;2023-05-16T08:40:59;2.45;;;0.60;;
27558;SDS011;15002;52.028;5.670;2023-05-16T08:43:25;1.75;;;0.52;;
27558;SDS011;15002;52.028;5.670;2023-05-16T08:45:50;2.78;;;0.77;;
27558;SDS011;15002;52.028;5.670;2023-05-16T08:48:16;3.78;;;1.00;;
27558;SDS011;15002;52.028;5.670;2023-05-16T08:50:46;5.10;;;0.77;;
27558;SDS011;15002;52.028;5.670;2023-05-16T08:53:13;2.40;;;0.80;;
27558;SDS011;15002;52.028;5.670;2023-05-16T08:55:45;3.65;;;0.80;;
27558;SDS011;15002;52.028;5.670;2023-05-16T08:58:12;4.78;;;0.85;;
27558;SDS011;15002;52.028;5.670;2023-05-16T09:00:39;4.97;;;0.70;;
27558;SDS011;15002;52.028;5.670;2023-05-16T09:03:04;3.50;;;0.82;;
27558;SDS011;15002;52.028;5.670;2023-05-16T09:05:30;5.68;;;0.70;;
27558;SDS011;15002;52.028;5.670;2023-05-16T09:07:57;4.63;;;1.10;;
27558;SDS011;15002;52.028;5.670;2023-05-16T09:10:22;5.00;;;0.95;;
27558;SDS011;15002;52.028;5.670;2023-05-16T09:12:48;5.22;;;1.27;;
27558;SDS011;15002;52.028;5.670;2023-05-16T09:15:16;4.13;;;1.00;;
27558;SDS011;15002;52.028;5.670;2023-05-16T09:17:44;3.92;;;1.02;;
27558;SDS011;15002;52.028;5.670;2023-05-16T09:20:17;3.10;;;0.88;;
27558;SDS011;15002;52.028;5.670;2023-05-16T09:22:51;3.05;;;0.95;;
27558;SDS011;15002;52.028;5.670;2023-05-16T09:25:20;1.75;;;0.75;;
27558;SDS011;15002;52.028;5.670;2023-05-16T09:27:47;1.25;;;0.40;;
27558;SDS011;15002;52.028;5.670;2023-05-16T09:30:17;4.55;;;0.80;;
27558;SDS011;15002;52.028;5.670;2023-05-16T09:32:53;1.98;;;0.40;;
27558;SDS011;15002;52.028;5.670;2023-05-16T09:35:19;5.88;;;0.82;;
27558;SDS011;15002;52.028;5.670;2023-05-16T09:37:46;3.35;;;0.52;;
27558;SDS011;15002;52.028;5.670;2023-05-16T09:40:12;4.97;;;0.63;;
27558;SDS011;15002;52.028;5.670;2023-05-16T09:42:38;2.47;;;0.50;;
27558;SDS011;15002;52.028;5.670;2023-05-16T09:45:04;3.25;;;0.50;;
27558;SDS011;15002;52.028;5.670;2023-05-16T09:47:30;1.58;;;0.40;;
27558;SDS011;15002;52.028;5.670;2023-05-16T09:49:56;7.97;;;0.90;;
27558;SDS011;15002;52.028;5.670;2023-05-16T09:52:25;5.20;;;0.68;;
27558;SDS011;15002;52.028;5.670;2023-05-16T09:54:51;4.93;;;1.00;;
27558;SDS011;15002;52.028;5.670;2023-05-16T09:57:21;4.95;;;0.95;;
27558;SDS011;15002;52.028;5.670;2023-05-16T09:59:47;5.22;;;0.55;;
27558;SDS011;15002;52.028;5.670;2023-05-16T10:02:14;8.50;;;1.23;;
27558;SDS011;15002;52.028;5.670;2023-05-16T10:04:40;3.67;;;0.80;;
27558;SDS011;15002;52.028;5.670;2023-05-16T10:07:06;3.75;;;0.80;;
27558;SDS011;15002;52.028;5.670;2023-05-16T10:09:34;2.25;;;0.70;;
27558;SDS011;15002;52.028;5.670;2023-05-16T10:12:01;5.57;;;0.85;;
27558;SDS011;15002;52.028;5.670;2023-05-16T10:14:29;4.95;;;0.60;;
27558;SDS011;15002;52.028;5.670;2023-05-16T10:16:58;3.88;;;0.70;;
27558;SDS011;15002;52.028;5.670;2023-05-16T10:19:25;3.47;;;0.70;;
27558;SDS011;15002;52.028;5.670;2023-05-16T10:21:52;3.92;;;0.80;;
27558;SDS011;15002;52.028;5.670;2023-05-16T10:24:25;2.95;;;0.90;;
27558;SDS011;15002;52.028;5.670;2023-05-16T10:26:56;3.60;;;0.80;;
27558;SDS011;15002;52.028;5.670;2023-05-16T10:29:21;2.83;;;0.55;;
27558;SDS011;15002;52.028;5.670;2023-05-16T10:31:48;2.72;;;0.52;;
27558;SDS011;15002;52.028;5.670;2023-05-16T10:34:15;3.35;;;0.90;;
27558;SDS011;15002;52.028;5.670;2023-05-16T10:36:42;4.65;;;0.95;;
27558;SDS011;15002;52.028;5.670;2023-05-16T10:39:09;3.72;;;0.73;;
27558;SDS011;15002;52.028;5.670;2023-05-16T10:41:36;6.13;;;0.70;;
27558;SDS011;15002;52.028;5.670;2023-05-16T10:44:02;4.93;;;0.90;;
27558;SDS011;15002;52.028;5.670;2023-05-16T10:46:28;8.73;;;0.90;;
27558;SDS011;15002;52.028;5.670;2023-05-16T10:48:55;5.18;;;0.90;;
27558;SDS011;15002;52.028;5.670;2023-05-16T10:53:50;6.38;;;0.77;;
27558;SDS011;15002;52.028;5.670;2023-05-16T10:56:21;3.38;;;0.80;;
27558;SDS011;15002;52.028;5.670;2023-05-16T10:58:48;3.80;;;0.93;;
27558;SDS011;15002;52.028;5.670;2023-05-16T11:06:25;3.75;;;0.70;;
27558;SDS011;15002;52.028;5.670;2023-05-16T11:14:03;3.88;;;0.98;;
27558;SDS011;15002;52.028;5.670;2023-05-16T11:16:28;4.03;;;0.88;;
27558;SDS011;15002;52.028;5.670;2023-05-16T11:18:54;5.20;;;0.73;;
27558;SDS011;15002;52.028;5.670;2023-05-16T11:24:32;3.47;;;0.80;;
27558;SDS011;15002;52.028;5.670;2023-05-16T11:26:59;1.90;;;0.75;;
27558;SDS011;15002;52.028;5.670;2023-05-16T11:29:35;2.33;;;0.77;;
27558;SDS011;15002;52.028;5.670;2023-05-16T11:32:02;5.47;;;0.77;;
27558;SDS011;15002;52.028;5.670;2023-05-16T11:34:29;2.53;;;0.75;;
27558;SDS011;15002;52.028;5.670;2023-05-16T11:36:56;5.05;;;0.90;;
27558;SDS011;15002;52.028;5.670;2023-05-16T11:39:22;3.20;;;0.70;;
27558;SDS011;15002;52.028;5.670;2023-05-16T11:41:51;2.17;;;0.70;;
27558;SDS011;15002;52.028;5.670;2023-05-16T11:44:17;2.45;;;0.80;;
27558;SDS011;15002;52.028;5.670;2023-05-16T11:46:43;4.32;;;1.15;;
27558;SDS011;15002;52.028;5.670;2023-05-16T11:49:10;4.65;;;1.17;;
27558;SDS011;15002;52.028;5.670;2023-05-16T11:51:37;3.38;;;0.90;;
27558;SDS011;15002;52.028;5.670;2023-05-16T11:54:03;2.35;;;0.73;;
27558;SDS011;15002;52.028;5.670;2023-05-16T11:56:29;6.40;;;0.88;;
27558;SDS011;15002;52.028;5.670;2023-05-16T11:58:56;7.38;;;0.70;;
27558;SDS011;15002;52.028;5.670;2023-05-16T12:01:24;2.75;;;0.82;;
27558;SDS011;15002;52.028;5.670;2023-05-16T12:03:53;2.65;;;0.65;;
27558;SDS011;15002;52.028;5.670;2023-05-16T12:06:22;2.40;;;0.70;;
27558;SDS011;15002;52.028;5.670;2023-05-16T12:08:50;4.22;;;0.75;;
27558;SDS011;15002;52.028;5.670;2023-05-16T12:11:16;2.30;;;0.60;;
27558;SDS011;15002;52.028;5.670;2023-05-16T12:13:42;3.28;;;0.90;;
27558;SDS011;15002;52.028;5.670;2023-05-16T12:16:08;4.50;;;1.02;;
27558;SDS011;15002;52.028;5.670;2023-05-16T12:18:36;3.35;;;0.80;;
27558;SDS011;15002;52.028;5.670;2023-05-16T12:21:05;3.67;;;0.68;;
27558;SDS011;15002;52.028;5.670;2023-05-16T12:23:33;2.58;;;0.80;;
27558;SDS011;15002;52.028;5.670;2023-05-16T12:25:59;3.45;;;0.88;;
27558;SDS011;15002;52.028;5.670;2023-05-16T12:28:31;3.55;;;0.70;;
27558;SDS011;15002;52.028;5.670;2023-05-16T12:31:02;3.00;;;0.68;;
27558;SDS011;15002;52.028;5.670;2023-05-16T12:33:28;4.55;;;0.80;;
27558;SDS011;15002;52.028;5.670;2023-05-16T12:35:53;2.78;;;0.63;;
27558;SDS011;15002;52.028;5.670;2023-05-16T12:38:19;5.13;;;0.95;;
27558;SDS011;15002;52.028;5.670;2023-05-16T12:40:45;4.25;;;0.73;;
27558;SDS011;15002;52.028;5.670;2023-05-16T12:43:15;3.53;;;0.70;;
27558;SDS011;15002;52.028;5.670;2023-05-16T12:45:53;4.85;;;0.93;;
27558;SDS011;15002;52.028;5.670;2023-05-16T12:48:20;6.65;;;0.95;;
27558;SDS011;15002;52.028;5.670;2023-05-16T12:50:46;5.95;;;0.70;;
27558;SDS011;15002;52.028;5.670;2023-05-16T12:53:16;7.15;;;0.80;;
27558;SDS011;15002;52.028;5.670;2023-05-16T12:55:42;3.88;;;0.82;;
27558;SDS011;15002;52.028;5.670;2023-05-16T12:58:09;5.65;;;0.70;;
27558;SDS011;15002;52.028;5.670;2023-05-16T13:00:35;4.53;;;0.57;;
27558;SDS011;15002;52.028;5.670;2023-05-16T13:03:02;4.53;;;0.65;;
27558;SDS011;15002;52.028;5.670;2023-05-16T13:05:28;2.92;;;0.80;;
27558;SDS011;15002;52.028;5.670;2023-05-16T13:07:54;5.68;;;1.00;;
27558;SDS011;15002;52.028;5.670;2023-05-16T13:10:20;6.05;;;1.10;;
27558;SDS011;15002;52.028;5.670;2023-05-16T13:12:45;4.47;;;0.80;;
27558;SDS011;15002;52.028;5.670;2023-05-16T13:15:11;5.50;;;0.90;;
27558;SDS011;15002;52.028;5.670;2023-05-16T13:17:37;3.97;;;0.95;;
27558;SDS011;15002;52.028;5.670;2023-05-16T13:20:04;4.93;;;1.05;;
27558;SDS011;15002;52.028;5.670;2023-05-16T13:22:36;7.32;;;1.00;;
27558;SDS011;15002;52.028;5.670;2023-05-16T13:25:03;3.65;;;0.88;;
27558;SDS011;15002;52.028;5.670;2023-05-16T13:27:30;8.85;;;3.45;;
27558;SDS011;15002;52.028;5.670;2023-05-16T13:29:56;7.25;;;2.30;;
27558;SDS011;15002;52.028;5.670;2023-05-16T13:32:22;5.53;;;1.35;;
27558;SDS011;15002;52.028;5.670;2023-05-16T13:34:48;4.00;;;0.73;;
27558;SDS011;15002;52.028;5.670;2023-05-16T13:37:14;6.13;;;1.00;;
27558;SDS011;15002;52.028;5.670;2023-05-16T13:39:40;5.45;;;1.10;;
27558;SDS011;15002;52.028;5.670;2023-05-16T13:42:06;3.53;;;0.80;;
27558;SDS011;15002;52.028;5.670;2023-05-16T13:44:32;7.22;;;1.25;;
27558;SDS011;15002;52.028;5.670;2023-05-16T13:46:57;4.93;;;1.20;;
27558;SDS011;15002;52.028;5.670;2023-05-16T13:49:23;6.72;;;1.20;;
27558;SDS011;15002;52.028;5.670;2023-05-16T13:51:49;4.70;;;0.90;;
27558;SDS011;15002;52.028;5.670;2023-05-16T13:54:16;4.70;;;0.95;;
27558;SDS011;15002;52.028;5.670;2023-05-16T13:56:42;3.97;;;1.27;;
27558;SDS011;15002;52.028;5.670;2023-05-16T13:59:08;7.18;;;1.60;;
27558;SDS011;15002;52.028;5.670;2023-05-16T14:01:34;9.15;;;1.83;;
27558;SDS011;15002;52.028;5.670;2023-05-16T14:04:00;3.95;;;0.90;;
27558;SDS011;15002;52.028;5.670;2023-05-16T14:06:26;5.85;;;1.08;;
27558;SDS011;15002;52.028;5.670;2023-05-16T14:08:52;4.20;;;1.40;;
27558;SDS011;15002;52.028;5.670;2023-05-16T14:11:18;4.97;;;1.23;;
27558;SDS011;15002;52.028;5.670;2023-05-16T14:13:46;5.55;;;1.50;;
27558;SDS011;15002;52.028;5.670;2023-05-16T14:16:13;16.38;;;6.70;;
27558;SDS011;15002;52.028;5.670;2023-05-16T14:18:39;6.15;;;1.55;;
27558;SDS011;15002;52.028;5.670;2023-05-16T14:21:04;4.25;;;1.25;;
27558;SDS011;15002;52.028;5.670;2023-05-16T14:23:30;4.35;;;1.40;;
27558;SDS011;15002;52.028;5.670;2023-05-16T14:25:55;5.10;;;1.10;;
27558;SDS011;15002;52.028;5.670;2023-05-16T14:28:21;5.40;;;1.25;;
27558;SDS011;15002;52.028;5.670;2023-05-16T14:30:47;7.80;;;1.65;;
27558;SDS011;15002;52.028;5.670;2023-05-16T14:33:13;7.05;;;1.98;;
27558;SDS011;15002;52.028;5.670;2023-05-16T14:35:38;7.45;;;1.52;;
27558;SDS011;15002;52.028;5.670;2023-05-16T14:38:05;5.25;;;1.35;;
27558;SDS011;15002;52.028;5.670;2023-05-16T14:40:31;3.78;;;1.35;;
27558;SDS011;15002;52.028;5.670;2023-05-16T14:42:58;6.53;;;1.40;;
27558;SDS011;15002;52.028;5.670;2023-05-16T14:45:24;5.20;;;1.77;;
27558;SDS011;15002;52.028;5.670;2023-05-16T14:47:49;7.07;;;2.00;;
27558;SDS011;15002;52.028;5.670;2023-05-16T14:50:16;8.05;;;1.00;;
27558;SDS011;15002;52.028;5.670;2023-05-16T14:52:42;5.53;;;1.30;;
27558;SDS011;15002;52.028;5.670;2023-05-16T14:55:07;5.90;;;1.08;;
27558;SDS011;15002;52.028;5.670;2023-05-16T14:57:33;6.53;;;1.20;;
27558;SDS011;15002;52.028;5.670;2023-05-16T15:00:00;5.10;;;1.00;;
27558;SDS011;15002;52.028;5.670;2023-05-16T15:02:26;4.93;;;1.10;;
27558;SDS011;15002;52.028;5.670;2023-05-16T15:04:51;4.47;;;1.00;;
27558;SDS011;15002;52.028;5.670;2023-05-16T15:07:18;5.40;;;1.05;;